sensor_id;sensor_type;location;lat;lon;timestamp;temperature;humidity
23629;DHT22;11991;57.150;-2.134;2023-09-12T00:00:47;12.70;99.90
23629;DHT22;11991;57.150;-2.134;2023-09-12T00:03:20;12.70;99.90
23629;DHT22;11991;57.150;-2.134;2023-09-12T00:05:56;12.70;99.90
23629;DHT22;11991;57.150;-2.134;2023-09-12T00:08:25;12.70;99.90
23629;DHT22;11991;57.150;-2.134;2023-09-12T00:11:00;12.70;99.90
23629;DHT22;11991;57.150;-2.134;2023-09-12T00:13:28;12.70;99.90
23629;DHT22;11991;57.150;-2.134;2023-09-12T00:15:55;12.60;99.90
23629;DHT22;11991;57.150;-2.134;2023-09-12T00:18:22;12.60;99.90
23629;DHT22;11991;57.150;-2.134;2023-09-12T00:20:50;12.60;99.90
23629;DHT22;11991;57.150;-2.134;2023-09-12T00:23:20;12.60;99.90
23629;DHT22;11991;57.150;-2.134;2023-09-12T00:25:48;12.60;99.90
23629;DHT22;11991;57.150;-2.134;2023-09-12T00:28:15;12.50;99.90
23629;DHT22;11991;57.150;-2.134;2023-09-12T00:30:42;12.50;99.90
23629;DHT22;11991;57.150;-2.134;2023-09-12T00:33:09;12.50;99.90
23629;DHT22;11991;57.150;-2.134;2023-09-12T00:35:37;12.50;99.90
23629;DHT22;11991;57.150;-2.134;2023-09-12T00:38:04;12.50;99.90
23629;DHT22;11991;57.150;-2.134;2023-09-12T00:40:33;12.50;99.90
23629;DHT22;11991;57.150;-2.134;2023-09-12T00:43:00;12.50;99.90
23629;DHT22;11991;57.150;-2.134;2023-09-12T00:45:27;12.50;99.90
23629;DHT22;11991;57.150;-2.134;2023-09-12T00:47:55;12.50;99.90
23629;DHT22;11991;57.150;-2.134;2023-09-12T00:50:25;12.50;99.90
23629;DHT22;11991;57.150;-2.134;2023-09-12T00:52:53;12.50;99.90
23629;DHT22;11991;57.150;-2.134;2023-09-12T00:55:21;12.50;99.90
23629;DHT22;11991;57.150;-2.134;2023-09-12T00:57:49;12.60;99.90
23629;DHT22;11991;57.150;-2.134;2023-09-12T01:00:16;12.60;99.90
23629;DHT22;11991;57.150;-2.134;2023-09-12T01:02:46;12.60;99.90
23629;DHT22;11991;57.150;-2.134;2023-09-12T01:05:14;12.60;99.90
23629;DHT22;11991;57.150;-2.134;2023-09-12T01:07:43;12.70;99.90
23629;DHT22;11991;57.150;-2.134;2023-09-12T01:10:10;12.70;99.90
23629;DHT22;11991;57.150;-2.134;2023-09-12T01:12:37;12.70;99.90
23629;DHT22;11991;57.150;-2.134;2023-09-12T01:15:05;12.70;99.90
23629;DHT22;11991;57.150;-2.134;2023-09-12T01:17:37;12.70;99.90
23629;DHT22;11991;57.150;-2.134;2023-09-12T01:20:06;12.70;99.90
23629;DHT22;11991;57.150;-2.134;2023-09-12T01:22:56;12.70;99.90
23629;DHT22;11991;57.150;-2.134;2023-09-12T01:25:48;12.60;99.90
23629;DHT22;11991;57.150;-2.134;2023-09-12T01:28:24;12.60;99.90
23629;DHT22;11991;57.150;-2.134;2023-09-12T01:30:55;12.50;99.90
23629;DHT22;11991;57.150;-2.134;2023-09-12T01:33:22;12.40;99.90
23629;DHT22;11991;57.150;-2.134;2023-09-12T01:35:49;12.30;99.90
23629;DHT22;11991;57.150;-2.134;2023-09-12T01:38:16;12.30;99.90
23629;DHT22;11991;57.150;-2.134;2023-09-12T01:40:47;12.20;99.90
23629;DHT22;11991;57.150;-2.134;2023-09-12T01:43:20;12.20;99.90
23629;DHT22;11991;57.150;-2.134;2023-09-12T01:45:50;12.20;99.90
23629;DHT22;11991;57.150;-2.134;2023-09-12T01:48:21;12.20;99.90
23629;DHT22;11991;57.150;-2.134;2023-09-12T01:50:49;12.20;99.90
23629;DHT22;11991;57.150;-2.134;2023-09-12T01:53:17;12.20;99.90
23629;DHT22;11991;57.150;-2.134;2023-09-12T01:55:45;12.20;99.90
23629;DHT22;11991;57.150;-2.134;2023-09-12T01:58:13;12.20;99.90
23629;DHT22;11991;57.150;-2.134;2023-09-12T02:00:41;12.20;99.90
23629;DHT22;11991;57.150;-2.134;2023-09-12T02:03:08;12.20;99.90
23629;DHT22;11991;57.150;-2.134;2023-09-12T02:05:36;12.20;99.90
23629;DHT22;11991;57.150;-2.134;2023-09-12T02:08:04;12.20;99.90
23629;DHT22;11991;57.150;-2.134;2023-09-12T02:10:32;12.20;99.90
23629;DHT22;11991;57.150;-2.134;2023-09-12T02:13:00;12.30;99.90
23629;DHT22;11991;57.150;-2.134;2023-09-12T02:15:27;12.30;99.90
23629;DHT22;11991;57.150;-2.134;2023-09-12T02:17:54;12.30;99.90
23629;DHT22;11991;57.150;-2.134;2023-09-12T02:20:21;12.30;99.90
23629;DHT22;11991;57.150;-2.134;2023-09-12T02:22:48;12.30;99.90
23629;DHT22;11991;57.150;-2.134;2023-09-12T02:25:17;12.30;99.90
23629;DHT22;11991;57.150;-2.134;2023-09-12T02:27:47;12.30;99.90
23629;DHT22;11991;57.150;-2.134;2023-09-12T02:30:14;12.30;99.90
23629;DHT22;11991;57.150;-2.134;2023-09-12T02:32:42;12.30;99.90
23629;DHT22;11991;57.150;-2.134;2023-09-12T02:35:10;12.30;99.90
23629;DHT22;11991;57.150;-2.134;2023-09-12T02:37:37;12.30;99.90
23629;DHT22;11991;57.150;-2.134;2023-09-12T02:40:04;12.30;99.90
23629;DHT22;11991;57.150;-2.134;2023-09-12T02:42:37;12.30;99.90
23629;DHT22;11991;57.150;-2.134;2023-09-12T02:45:05;12.20;99.90
23629;DHT22;11991;57.150;-2.134;2023-09-12T02:47:32;12.20;99.90
23629;DHT22;11991;57.150;-2.134;2023-09-12T02:50:00;12.10;99.90
23629;DHT22;11991;57.150;-2.134;2023-09-12T02:52:27;12.10;99.90
23629;DHT22;11991;57.150;-2.134;2023-09-12T02:54:55;12.20;99.90
23629;DHT22;11991;57.150;-2.134;2023-09-12T02:57:22;12.20;99.90
23629;DHT22;11991;57.150;-2.134;2023-09-12T02:59:49;12.30;99.90
23629;DHT22;11991;57.150;-2.134;2023-09-12T03:02:16;12.30;99.90
23629;DHT22;11991;57.150;-2.134;2023-09-12T03:04:43;12.30;99.90
23629;DHT22;11991;57.150;-2.134;2023-09-12T03:07:11;12.30;99.90
23629;DHT22;11991;57.150;-2.134;2023-09-12T03:09:38;12.30;99.90
23629;DHT22;11991;57.150;-2.134;2023-09-12T03:12:06;12.30;99.90
23629;DHT22;11991;57.150;-2.134;2023-09-12T03:14:33;12.30;99.90
23629;DHT22;11991;57.150;-2.134;2023-09-12T03:17:02;12.30;99.90
23629;DHT22;11991;57.150;-2.134;2023-09-12T03:19:30;12.30;99.90
23629;DHT22;11991;57.150;-2.134;2023-09-12T03:21:57;12.40;99.90
23629;DHT22;11991;57.150;-2.134;2023-09-12T03:24:25;12.40;99.90
23629;DHT22;11991;57.150;-2.134;2023-09-12T03:26:52;12.40;99.90
23629;DHT22;11991;57.150;-2.134;2023-09-12T03:29:19;12.30;99.90
23629;DHT22;11991;57.150;-2.134;2023-09-12T03:31:47;12.30;99.90
23629;DHT22;11991;57.150;-2.134;2023-09-12T03:34:15;12.20;99.90
23629;DHT22;11991;57.150;-2.134;2023-09-12T03:36:42;12.10;99.90
23629;DHT22;11991;57.150;-2.134;2023-09-12T03:39:09;12.00;99.90
23629;DHT22;11991;57.150;-2.134;2023-09-12T03:41:40;12.00;99.90
23629;DHT22;11991;57.150;-2.134;2023-09-12T03:44:07;11.90;99.90
23629;DHT22;11991;57.150;-2.134;2023-09-12T03:46:36;11.80;99.90
23629;DHT22;11991;57.150;-2.134;2023-09-12T03:49:03;11.60;99.90
23629;DHT22;11991;57.150;-2.134;2023-09-12T03:51:30;11.60;99.90
23629;DHT22;11991;57.150;-2.134;2023-09-12T03:53:58;11.50;99.90
23629;DHT22;11991;57.150;-2.134;2023-09-12T03:56:25;11.50;99.90
23629;DHT22;11991;57.150;-2.134;2023-09-12T03:58:53;11.50;99.90
23629;DHT22;11991;57.150;-2.134;2023-09-12T04:01:23;11.50;99.90
23629;DHT22;11991;57.150;-2.134;2023-09-12T04:03:51;11.50;99.90
23629;DHT22;11991;57.150;-2.134;2023-09-12T04:06:18;11.50;99.90
23629;DHT22;11991;57.150;-2.134;2023-09-12T04:08:45;11.50;99.90
23629;DHT22;11991;57.150;-2.134;2023-09-12T04:11:12;11.40;99.90
23629;DHT22;11991;57.150;-2.134;2023-09-12T04:13:39;11.40;99.90
23629;DHT22;11991;57.150;-2.134;2023-09-12T04:16:06;11.30;99.90
23629;DHT22;11991;57.150;-2.134;2023-09-12T04:18:34;11.30;99.90
23629;DHT22;11991;57.150;-2.134;2023-09-12T04:21:01;11.30;99.90
23629;DHT22;11991;57.150;-2.134;2023-09-12T04:23:28;11.20;99.90
23629;DHT22;11991;57.150;-2.134;2023-09-12T04:25:56;11.20;99.90
23629;DHT22;11991;57.150;-2.134;2023-09-12T04:28:23;11.20;99.90
23629;DHT22;11991;57.150;-2.134;2023-09-12T04:31:03;11.20;99.90
23629;DHT22;11991;57.150;-2.134;2023-09-12T04:33:30;11.10;99.90
23629;DHT22;11991;57.150;-2.134;2023-09-12T04:36:00;11.10;99.90
23629;DHT22;11991;57.150;-2.134;2023-09-12T04:38:27;11.00;99.90
23629;DHT22;11991;57.150;-2.134;2023-09-12T04:40:59;11.00;99.90
23629;DHT22;11991;57.150;-2.134;2023-09-12T04:43:30;11.00;99.90
23629;DHT22;11991;57.150;-2.134;2023-09-12T04:45:57;10.90;99.90
23629;DHT22;11991;57.150;-2.134;2023-09-12T04:48:25;10.90;99.90
23629;DHT22;11991;57.150;-2.134;2023-09-12T04:50:52;10.80;99.90
23629;DHT22;11991;57.150;-2.134;2023-09-12T04:53:19;10.80;99.90
23629;DHT22;11991;57.150;-2.134;2023-09-12T04:55:46;10.70;99.90
23629;DHT22;11991;57.150;-2.134;2023-09-12T04:58:13;10.70;99.90
23629;DHT22;11991;57.150;-2.134;2023-09-12T05:00:41;10.70;99.90
23629;DHT22;11991;57.150;-2.134;2023-09-12T05:03:08;10.70;99.90
23629;DHT22;11991;57.150;-2.134;2023-09-12T05:05:35;10.70;99.90
23629;DHT22;11991;57.150;-2.134;2023-09-12T05:08:05;10.80;99.90
23629;DHT22;11991;57.150;-2.134;2023-09-12T05:10:33;10.80;99.90
23629;DHT22;11991;57.150;-2.134;2023-09-12T05:13:00;10.70;99.90
23629;DHT22;11991;57.150;-2.134;2023-09-12T05:15:27;10.70;99.90
23629;DHT22;11991;57.150;-2.134;2023-09-12T05:17:54;10.70;99.90
23629;DHT22;11991;57.150;-2.134;2023-09-12T05:20:22;10.70;99.90
23629;DHT22;11991;57.150;-2.134;2023-09-12T05:22:49;10.60;99.90
23629;DHT22;11991;57.150;-2.134;2023-09-12T05:25:16;10.60;99.90
23629;DHT22;11991;57.150;-2.134;2023-09-12T05:27:43;10.70;99.90
23629;DHT22;11991;57.150;-2.134;2023-09-12T05:30:11;10.70;99.90
23629;DHT22;11991;57.150;-2.134;2023-09-12T05:32:38;10.70;99.90
23629;DHT22;11991;57.150;-2.134;2023-09-12T05:35:06;10.70;99.90
23629;DHT22;11991;57.150;-2.134;2023-09-12T05:37:47;10.70;99.90
23629;DHT22;11991;57.150;-2.134;2023-09-12T05:40:14;10.70;99.90
23629;DHT22;11991;57.150;-2.134;2023-09-12T05:42:42;10.60;99.90
23629;DHT22;11991;57.150;-2.134;2023-09-12T05:45:10;10.60;99.90
23629;DHT22;11991;57.150;-2.134;2023-09-12T05:47:37;10.60;99.90
23629;DHT22;11991;57.150;-2.134;2023-09-12T05:50:05;10.60;99.90
23629;DHT22;11991;57.150;-2.134;2023-09-12T05:52:34;10.50;99.90
23629;DHT22;11991;57.150;-2.134;2023-09-12T05:55:01;10.50;99.90
23629;DHT22;11991;57.150;-2.134;2023-09-12T05:57:28;10.40;99.90
23629;DHT22;11991;57.150;-2.134;2023-09-12T05:59:56;10.40;99.90
23629;DHT22;11991;57.150;-2.134;2023-09-12T06:02:23;10.40;99.90
23629;DHT22;11991;57.150;-2.134;2023-09-12T06:04:50;10.40;99.90
23629;DHT22;11991;57.150;-2.134;2023-09-12T06:07:18;10.40;99.90
23629;DHT22;11991;57.150;-2.134;2023-09-12T06:09:46;10.40;99.90
23629;DHT22;11991;57.150;-2.134;2023-09-12T06:12:14;10.50;99.90
23629;DHT22;11991;57.150;-2.134;2023-09-12T06:14:41;10.50;99.90
23629;DHT22;11991;57.150;-2.134;2023-09-12T06:17:08;10.50;99.90
23629;DHT22;11991;57.150;-2.134;2023-09-12T06:19:35;10.60;99.90
23629;DHT22;11991;57.150;-2.134;2023-09-12T06:22:02;10.70;99.90
23629;DHT22;11991;57.150;-2.134;2023-09-12T06:24:29;10.70;99.90
23629;DHT22;11991;57.150;-2.134;2023-09-12T06:26:57;10.70;99.90
23629;DHT22;11991;57.150;-2.134;2023-09-12T06:29:24;10.70;99.90
23629;DHT22;11991;57.150;-2.134;2023-09-12T06:31:51;10.70;99.90
23629;DHT22;11991;57.150;-2.134;2023-09-12T06:34:18;10.70;99.90
23629;DHT22;11991;57.150;-2.134;2023-09-12T06:36:45;10.70;99.90
23629;DHT22;11991;57.150;-2.134;2023-09-12T06:39:12;10.80;99.90
23629;DHT22;11991;57.150;-2.134;2023-09-12T06:41:39;10.80;99.90
23629;DHT22;11991;57.150;-2.134;2023-09-12T06:44:07;10.80;99.90
23629;DHT22;11991;57.150;-2.134;2023-09-12T06:46:34;10.80;99.90
23629;DHT22;11991;57.150;-2.134;2023-09-12T06:49:05;10.90;99.90
23629;DHT22;11991;57.150;-2.134;2023-09-12T06:51:32;10.90;99.90
23629;DHT22;11991;57.150;-2.134;2023-09-12T06:54:04;10.90;99.90
23629;DHT22;11991;57.150;-2.134;2023-09-12T06:56:31;10.90;99.90
23629;DHT22;11991;57.150;-2.134;2023-09-12T06:58:59;11.00;99.90
23629;DHT22;11991;57.150;-2.134;2023-09-12T07:01:26;11.10;99.90
23629;DHT22;11991;57.150;-2.134;2023-09-12T07:03:53;11.10;99.90
23629;DHT22;11991;57.150;-2.134;2023-09-12T07:06:23;11.20;99.90
23629;DHT22;11991;57.150;-2.134;2023-09-12T07:08:50;11.20;99.90
23629;DHT22;11991;57.150;-2.134;2023-09-12T07:11:20;11.30;99.90
23629;DHT22;11991;57.150;-2.134;2023-09-12T07:13:47;11.30;99.90
23629;DHT22;11991;57.150;-2.134;2023-09-12T07:16:15;11.40;99.90
23629;DHT22;11991;57.150;-2.134;2023-09-12T07:18:42;11.40;99.90
23629;DHT22;11991;57.150;-2.134;2023-09-12T07:21:10;11.50;99.90
23629;DHT22;11991;57.150;-2.134;2023-09-12T07:23:39;11.50;99.90
23629;DHT22;11991;57.150;-2.134;2023-09-12T07:26:12;11.50;99.90
23629;DHT22;11991;57.150;-2.134;2023-09-12T07:28:40;11.60;99.90
23629;DHT22;11991;57.150;-2.134;2023-09-12T07:31:08;11.60;99.90
23629;DHT22;11991;57.150;-2.134;2023-09-12T07:33:35;11.70;99.90
23629;DHT22;11991;57.150;-2.134;2023-09-12T07:36:02;11.70;99.90
23629;DHT22;11991;57.150;-2.134;2023-09-12T07:38:30;11.70;99.90
23629;DHT22;11991;57.150;-2.134;2023-09-12T07:41:02;11.70;99.90
23629;DHT22;11991;57.150;-2.134;2023-09-12T07:43:30;11.80;99.90
23629;DHT22;11991;57.150;-2.134;2023-09-12T07:45:58;11.80;99.90
23629;DHT22;11991;57.150;-2.134;2023-09-12T07:48:25;11.80;99.90
23629;DHT22;11991;57.150;-2.134;2023-09-12T07:50:53;11.90;99.90
23629;DHT22;11991;57.150;-2.134;2023-09-12T07:53:21;11.90;99.90
23629;DHT22;11991;57.150;-2.134;2023-09-12T07:55:49;12.00;99.90
23629;DHT22;11991;57.150;-2.134;2023-09-12T07:58:18;12.10;99.90
23629;DHT22;11991;57.150;-2.134;2023-09-12T08:00:46;12.10;99.90
23629;DHT22;11991;57.150;-2.134;2023-09-12T08:03:14;12.20;99.90
23629;DHT22;11991;57.150;-2.134;2023-09-12T08:05:42;12.20;99.90
23629;DHT22;11991;57.150;-2.134;2023-09-12T08:08:09;12.30;99.90
23629;DHT22;11991;57.150;-2.134;2023-09-12T08:10:37;12.30;99.90
23629;DHT22;11991;57.150;-2.134;2023-09-12T08:13:06;12.40;99.90
23629;DHT22;11991;57.150;-2.134;2023-09-12T08:15:33;12.40;99.90
23629;DHT22;11991;57.150;-2.134;2023-09-12T08:18:00;12.50;99.90
23629;DHT22;11991;57.150;-2.134;2023-09-12T08:20:27;12.50;99.90
23629;DHT22;11991;57.150;-2.134;2023-09-12T08:22:54;12.50;99.90
23629;DHT22;11991;57.150;-2.134;2023-09-12T08:25:22;12.50;99.90
23629;DHT22;11991;57.150;-2.134;2023-09-12T08:27:50;12.50;99.90
23629;DHT22;11991;57.150;-2.134;2023-09-12T08:30:17;12.50;99.90
23629;DHT22;11991;57.150;-2.134;2023-09-12T08:32:45;12.50;99.90
23629;DHT22;11991;57.150;-2.134;2023-09-12T08:35:13;12.60;99.90
23629;DHT22;11991;57.150;-2.134;2023-09-12T08:37:41;12.60;99.90
23629;DHT22;11991;57.150;-2.134;2023-09-12T08:40:09;12.60;99.90
23629;DHT22;11991;57.150;-2.134;2023-09-12T08:42:40;12.60;99.90
23629;DHT22;11991;57.150;-2.134;2023-09-12T08:45:18;12.70;99.90
23629;DHT22;11991;57.150;-2.134;2023-09-12T08:47:49;12.70;99.90
23629;DHT22;11991;57.150;-2.134;2023-09-12T08:50:17;12.80;99.90
23629;DHT22;11991;57.150;-2.134;2023-09-12T08:52:46;12.80;99.90
23629;DHT22;11991;57.150;-2.134;2023-09-12T08:55:31;12.90;99.90
23629;DHT22;11991;57.150;-2.134;2023-09-12T08:58:09;12.90;99.90
23629;DHT22;11991;57.150;-2.134;2023-09-12T09:00:36;13.00;99.90
23629;DHT22;11991;57.150;-2.134;2023-09-12T09:03:04;13.00;99.90
23629;DHT22;11991;57.150;-2.134;2023-09-12T09:05:33;13.10;99.90
23629;DHT22;11991;57.150;-2.134;2023-09-12T09:08:00;13.10;99.90
23629;DHT22;11991;57.150;-2.134;2023-09-12T09:10:28;13.30;99.90
23629;DHT22;11991;57.150;-2.134;2023-09-12T09:13:17;13.30;99.90
23629;DHT22;11991;57.150;-2.134;2023-09-12T09:15:45;13.40;99.90
23629;DHT22;11991;57.150;-2.134;2023-09-12T09:18:12;13.50;99.90
23629;DHT22;11991;57.150;-2.134;2023-09-12T09:20:40;13.50;99.90
23629;DHT22;11991;57.150;-2.134;2023-09-12T09:23:10;13.60;99.90
23629;DHT22;11991;57.150;-2.134;2023-09-12T09:25:42;13.60;99.90
23629;DHT22;11991;57.150;-2.134;2023-09-12T09:28:20;13.60;99.90
23629;DHT22;11991;57.150;-2.134;2023-09-12T09:30:49;13.60;99.90
23629;DHT22;11991;57.150;-2.134;2023-09-12T09:33:22;13.50;99.90
23629;DHT22;11991;57.150;-2.134;2023-09-12T09:35:49;13.50;99.90
23629;DHT22;11991;57.150;-2.134;2023-09-12T09:38:21;13.40;99.90
23629;DHT22;11991;57.150;-2.134;2023-09-12T09:40:50;13.40;99.90
23629;DHT22;11991;57.150;-2.134;2023-09-12T09:43:21;13.40;99.90
23629;DHT22;11991;57.150;-2.134;2023-09-12T09:45:48;13.50;99.90
23629;DHT22;11991;57.150;-2.134;2023-09-12T09:48:23;13.60;99.90
23629;DHT22;11991;57.150;-2.134;2023-09-12T09:50:50;13.60;99.90
23629;DHT22;11991;57.150;-2.134;2023-09-12T09:53:29;13.70;99.90
23629;DHT22;11991;57.150;-2.134;2023-09-12T09:56:23;13.70;99.90
23629;DHT22;11991;57.150;-2.134;2023-09-12T09:58:56;13.50;99.90
23629;DHT22;11991;57.150;-2.134;2023-09-12T10:01:28;13.40;99.90
23629;DHT22;11991;57.150;-2.134;2023-09-12T10:04:00;13.40;99.90
23629;DHT22;11991;57.150;-2.134;2023-09-12T10:06:28;13.40;99.90
23629;DHT22;11991;57.150;-2.134;2023-09-12T10:08:58;13.50;99.90
23629;DHT22;11991;57.150;-2.134;2023-09-12T10:11:28;13.60;99.90
23629;DHT22;11991;57.150;-2.134;2023-09-12T10:14:02;13.70;99.90
23629;DHT22;11991;57.150;-2.134;2023-09-12T10:16:44;13.70;99.90
23629;DHT22;11991;57.150;-2.134;2023-09-12T10:19:18;13.70;99.90
23629;DHT22;11991;57.150;-2.134;2023-09-12T10:22:18;13.80;99.90
23629;DHT22;11991;57.150;-2.134;2023-09-12T10:24:49;13.80;99.90
23629;DHT22;11991;57.150;-2.134;2023-09-12T10:27:18;13.90;99.90
23629;DHT22;11991;57.150;-2.134;2023-09-12T10:29:46;13.90;99.90
23629;DHT22;11991;57.150;-2.134;2023-09-12T10:32:17;13.80;99.90
23629;DHT22;11991;57.150;-2.134;2023-09-12T10:34:46;13.80;99.90
23629;DHT22;11991;57.150;-2.134;2023-09-12T10:37:16;13.80;99.90
23629;DHT22;11991;57.150;-2.134;2023-09-12T10:39:44;13.80;99.90
23629;DHT22;11991;57.150;-2.134;2023-09-12T10:42:13;13.80;99.90
23629;DHT22;11991;57.150;-2.134;2023-09-12T10:44:40;13.90;99.90
23629;DHT22;11991;57.150;-2.134;2023-09-12T10:47:08;13.90;99.90
23629;DHT22;11991;57.150;-2.134;2023-09-12T10:49:37;13.90;99.90
23629;DHT22;11991;57.150;-2.134;2023-09-12T10:52:04;14.00;99.90
23629;DHT22;11991;57.150;-2.134;2023-09-12T10:54:39;14.10;99.90
23629;DHT22;11991;57.150;-2.134;2023-09-12T10:57:09;14.20;99.90
23629;DHT22;11991;57.150;-2.134;2023-09-12T11:02:34;14.20;99.90
23629;DHT22;11991;57.150;-2.134;2023-09-12T11:05:07;14.20;99.90
23629;DHT22;11991;57.150;-2.134;2023-09-12T11:08:01;14.10;99.90
23629;DHT22;11991;57.150;-2.134;2023-09-12T11:10:28;14.10;99.90
23629;DHT22;11991;57.150;-2.134;2023-09-12T11:12:58;14.20;99.90
23629;DHT22;11991;57.150;-2.134;2023-09-12T11:15:27;14.30;99.90
23629;DHT22;11991;57.150;-2.134;2023-09-12T11:18:03;14.20;99.90
23629;DHT22;11991;57.150;-2.134;2023-09-12T11:21:00;14.20;99.90
23629;DHT22;11991;57.150;-2.134;2023-09-12T11:23:31;14.10;99.90
23629;DHT22;11991;57.150;-2.134;2023-09-12T11:26:08;14.10;99.90
23629;DHT22;11991;57.150;-2.134;2023-09-12T11:28:38;14.20;99.90
23629;DHT22;11991;57.150;-2.134;2023-09-12T11:31:06;14.30;99.90
23629;DHT22;11991;57.150;-2.134;2023-09-12T11:33:34;14.40;99.90
23629;DHT22;11991;57.150;-2.134;2023-09-12T11:36:04;14.40;99.90
23629;DHT22;11991;57.150;-2.134;2023-09-12T11:38:37;14.40;99.90
23629;DHT22;11991;57.150;-2.134;2023-09-12T11:41:05;14.50;99.90
23629;DHT22;11991;57.150;-2.134;2023-09-12T11:43:32;14.50;99.90
23629;DHT22;11991;57.150;-2.134;2023-09-12T11:46:01;14.60;99.90
23629;DHT22;11991;57.150;-2.134;2023-09-12T11:48:29;14.60;99.90
23629;DHT22;11991;57.150;-2.134;2023-09-12T11:50:57;14.80;99.90
23629;DHT22;11991;57.150;-2.134;2023-09-12T11:53:26;14.90;99.90
23629;DHT22;11991;57.150;-2.134;2023-09-12T11:55:56;15.00;99.90
23629;DHT22;11991;57.150;-2.134;2023-09-12T11:58:25;15.10;99.90
23629;DHT22;11991;57.150;-2.134;2023-09-12T12:00:56;15.10;99.90
23629;DHT22;11991;57.150;-2.134;2023-09-12T12:03:25;15.00;99.90
23629;DHT22;11991;57.150;-2.134;2023-09-12T12:05:54;14.80;99.90
23629;DHT22;11991;57.150;-2.134;2023-09-12T12:08:22;14.60;99.90
23629;DHT22;11991;57.150;-2.134;2023-09-12T12:10:52;14.70;99.90
23629;DHT22;11991;57.150;-2.134;2023-09-12T12:13:21;14.80;99.90
23629;DHT22;11991;57.150;-2.134;2023-09-12T12:15:50;14.90;99.90
23629;DHT22;11991;57.150;-2.134;2023-09-12T12:18:18;14.80;99.90
23629;DHT22;11991;57.150;-2.134;2023-09-12T12:20:45;14.70;99.90
23629;DHT22;11991;57.150;-2.134;2023-09-12T12:23:12;14.70;99.90
23629;DHT22;11991;57.150;-2.134;2023-09-12T12:25:40;14.90;99.90
23629;DHT22;11991;57.150;-2.134;2023-09-12T12:28:07;15.10;99.90
23629;DHT22;11991;57.150;-2.134;2023-09-12T12:30:35;14.90;99.90
23629;DHT22;11991;57.150;-2.134;2023-09-12T12:33:08;14.80;99.90
23629;DHT22;11991;57.150;-2.134;2023-09-12T12:36:02;14.60;99.90
23629;DHT22;11991;57.150;-2.134;2023-09-12T12:38:37;14.50;99.90
23629;DHT22;11991;57.150;-2.134;2023-09-12T12:41:17;14.70;99.90
23629;DHT22;11991;57.150;-2.134;2023-09-12T12:43:50;14.80;99.90
23629;DHT22;11991;57.150;-2.134;2023-09-12T12:46:21;15.00;99.90
23629;DHT22;11991;57.150;-2.134;2023-09-12T12:48:48;15.10;99.90
23629;DHT22;11991;57.150;-2.134;2023-09-12T12:51:24;15.10;99.90
23629;DHT22;11991;57.150;-2.134;2023-09-12T12:53:53;15.10;99.90
23629;DHT22;11991;57.150;-2.134;2023-09-12T12:56:27;15.10;99.90
23629;DHT22;11991;57.150;-2.134;2023-09-12T12:58:59;15.20;99.90
23629;DHT22;11991;57.150;-2.134;2023-09-12T13:01:30;15.30;99.90
23629;DHT22;11991;57.150;-2.134;2023-09-12T13:03:58;15.40;99.90
23629;DHT22;11991;57.150;-2.134;2023-09-12T13:06:26;15.50;99.90
23629;DHT22;11991;57.150;-2.134;2023-09-12T13:08:55;15.60;99.90
23629;DHT22;11991;57.150;-2.134;2023-09-12T13:11:24;15.70;99.90
23629;DHT22;11991;57.150;-2.134;2023-09-12T13:13:52;15.60;99.90
23629;DHT22;11991;57.150;-2.134;2023-09-12T13:16:19;15.50;99.90
23629;DHT22;11991;57.150;-2.134;2023-09-12T13:18:46;15.60;99.90
23629;DHT22;11991;57.150;-2.134;2023-09-12T13:21:14;15.50;99.90
23629;DHT22;11991;57.150;-2.134;2023-09-12T13:23:41;15.50;99.90
23629;DHT22;11991;57.150;-2.134;2023-09-12T13:26:09;15.50;99.90
23629;DHT22;11991;57.150;-2.134;2023-09-12T13:28:37;15.50;99.90
23629;DHT22;11991;57.150;-2.134;2023-09-12T13:31:04;15.60;99.90
23629;DHT22;11991;57.150;-2.134;2023-09-12T13:33:32;15.60;99.90
23629;DHT22;11991;57.150;-2.134;2023-09-12T13:35:59;15.60;99.90
23629;DHT22;11991;57.150;-2.134;2023-09-12T13:38:26;15.70;99.90
23629;DHT22;11991;57.150;-2.134;2023-09-12T13:40:53;15.70;99.90
23629;DHT22;11991;57.150;-2.134;2023-09-12T13:43:20;15.70;99.90
23629;DHT22;11991;57.150;-2.134;2023-09-12T13:45:49;15.70;99.90
23629;DHT22;11991;57.150;-2.134;2023-09-12T13:48:17;15.70;99.90
23629;DHT22;11991;57.150;-2.134;2023-09-12T13:50:45;15.70;99.90
23629;DHT22;11991;57.150;-2.134;2023-09-12T13:53:12;15.80;99.90
23629;DHT22;11991;57.150;-2.134;2023-09-12T13:55:39;15.90;99.90
23629;DHT22;11991;57.150;-2.134;2023-09-12T13:58:27;16.00;99.90
23629;DHT22;11991;57.150;-2.134;2023-09-12T14:01:07;16.10;99.90
23629;DHT22;11991;57.150;-2.134;2023-09-12T14:03:37;16.00;99.90
23629;DHT22;11991;57.150;-2.134;2023-09-12T14:06:05;16.00;99.90
23629;DHT22;11991;57.150;-2.134;2023-09-12T14:08:33;16.00;99.90
23629;DHT22;11991;57.150;-2.134;2023-09-12T14:11:00;16.10;99.90
23629;DHT22;11991;57.150;-2.134;2023-09-12T14:13:27;16.20;99.90
23629;DHT22;11991;57.150;-2.134;2023-09-12T14:15:55;16.20;99.90
23629;DHT22;11991;57.150;-2.134;2023-09-12T14:18:24;16.10;99.90
23629;DHT22;11991;57.150;-2.134;2023-09-12T14:20:52;16.00;99.90
23629;DHT22;11991;57.150;-2.134;2023-09-12T14:23:20;15.90;99.90
23629;DHT22;11991;57.150;-2.134;2023-09-12T14:25:48;15.90;99.90
23629;DHT22;11991;57.150;-2.134;2023-09-12T14:28:16;15.90;99.90
23629;DHT22;11991;57.150;-2.134;2023-09-12T14:30:45;15.70;99.90
23629;DHT22;11991;57.150;-2.134;2023-09-12T14:33:13;15.60;99.90
23629;DHT22;11991;57.150;-2.134;2023-09-12T14:35:44;15.60;99.90
23629;DHT22;11991;57.150;-2.134;2023-09-12T14:38:11;15.60;99.90
23629;DHT22;11991;57.150;-2.134;2023-09-12T14:40:39;15.60;99.90
23629;DHT22;11991;57.150;-2.134;2023-09-12T14:43:11;15.70;99.90
23629;DHT22;11991;57.150;-2.134;2023-09-12T14:45:38;15.90;99.90
23629;DHT22;11991;57.150;-2.134;2023-09-12T14:48:06;15.90;99.90
23629;DHT22;11991;57.150;-2.134;2023-09-12T14:50:34;16.00;99.90
23629;DHT22;11991;57.150;-2.134;2023-09-12T14:53:10;16.00;99.90
23629;DHT22;11991;57.150;-2.134;2023-09-12T14:55:39;15.90;99.90
23629;DHT22;11991;57.150;-2.134;2023-09-12T14:58:06;15.90;99.90
23629;DHT22;11991;57.150;-2.134;2023-09-12T15:00:33;15.80;99.90
23629;DHT22;11991;57.150;-2.134;2023-09-12T15:03:01;15.70;99.90
23629;DHT22;11991;57.150;-2.134;2023-09-12T15:05:29;15.50;99.90
23629;DHT22;11991;57.150;-2.134;2023-09-12T15:07:56;15.40;99.90
23629;DHT22;11991;57.150;-2.134;2023-09-12T15:10:23;15.40;99.90
23629;DHT22;11991;57.150;-2.134;2023-09-12T15:12:51;15.40;99.90
23629;DHT22;11991;57.150;-2.134;2023-09-12T15:15:18;15.40;99.90
23629;DHT22;11991;57.150;-2.134;2023-09-12T15:17:46;15.50;99.90
23629;DHT22;11991;57.150;-2.134;2023-09-12T15:20:13;15.30;99.90
23629;DHT22;11991;57.150;-2.134;2023-09-12T15:22:40;15.30;99.90
23629;DHT22;11991;57.150;-2.134;2023-09-12T15:25:10;15.30;99.90
23629;DHT22;11991;57.150;-2.134;2023-09-12T15:27:37;15.30;99.90
23629;DHT22;11991;57.150;-2.134;2023-09-12T15:30:05;15.40;99.90